Time;durP1;ratioP1;P1;durP2;ratioP2;P2;SDS_P1;SDS_P2;PMS_P1;PMS_P2;Temp;Humidity;BMP_temperature;BMP_pressure;BME280_temperature;BME280_humidity;BME280_pressure;Samples;Min_cycle;Max_cycle;Signal;HPM_P1;HPM_P2
2022/08/17 00:01:26;;;;;;;20.65;18.02;;;20.90;99.90;;;;;;5006245;28;20064;-78
2022/08/17 00:03:52;;;;;;;19.42;17.42;;;20.80;99.90;;;;;;5006710;28;20151;-78
2022/08/17 00:06:26;;;;;;;18.17;16.27;;;20.70;99.90;;;;;;5022718;28;20103;-78
2022/08/17 00:09:00;;;;;;;19.92;17.83;;;20.70;99.90;;;;;;5028998;28;20140;-78
2022/08/17 00:11:38;;;;;;;18.05;16.30;;;20.70;99.90;;;;;;5029090;28;20146;-78
2022/08/17 00:14:09;;;;;;;20.02;18.02;;;20.60;99.90;;;;;;5014038;28;21740;-78
2022/08/17 00:16:46;;;;;;;20.08;18.02;;;20.60;99.90;;;;;;5021729;28;20060;-78
2022/08/17 00:19:15;;;;;;;18.25;16.52;;;20.60;99.90;;;;;;5030999;28;20060;-78
2022/08/17 00:21:45;;;;;;;19.73;17.73;;;20.50;99.90;;;;;;5029283;28;20041;-78
2022/08/17 00:24:11;;;;;;;20.55;18.48;;;20.50;99.90;;;;;;5028808;28;20487;-78
2022/08/17 00:26:37;;;;;;;20.65;18.70;;;20.50;99.90;;;;;;5028292;28;20049;-78
2022/08/17 00:29:04;;;;;;;19.65;17.75;;;20.40;99.90;;;;;;5014385;28;20041;-78
2022/08/17 00:31:30;;;;;;;18.80;16.98;;;20.50;99.90;;;;;;5006419;28;20445;-78
2022/08/17 00:33:56;;;;;;;20.88;18.67;;;20.40;99.90;;;;;;5014364;28;20822;-78
2022/08/17 00:36:23;;;;;;;20.17;17.60;;;20.40;99.90;;;;;;5013562;28;20081;-78
2022/08/17 00:38:49;;;;;;;19.40;17.40;;;20.40;99.90;;;;;;4997652;28;20124;-78
2022/08/17 00:41:18;;;;;;;21.58;19.45;;;20.40;99.90;;;;;;5030327;28;20041;-82
2022/08/17 00:43:57;;;;;;;19.38;17.40;;;20.40;99.90;;;;;;5028549;28;20072;-78
2022/08/17 00:46:32;;;;;;;20.60;18.45;;;20.30;99.90;;;;;;5021302;28;20057;-78
2022/08/17 00:48:58;;;;;;;19.48;17.20;;;20.30;99.90;;;;;;5030005;28;20058;-78
2022/08/17 00:51:55;;;;;;;19.92;17.98;;;20.30;99.90;;;;;;5030167;28;20053;-77
2022/08/17 00:54:42;;;;;;;19.35;17.35;;;20.30;99.90;;;;;;5030400;28;20097;-77
2022/08/17 00:57:13;;;;;;;20.52;18.48;;;20.30;99.90;;;;;;5027824;28;20049;-77
2022/08/17 00:59:45;;;;;;;20.80;18.60;;;20.30;99.90;;;;;;5013517;28;20049;-77
2022/08/17 01:02:13;;;;;;;19.48;17.48;;;20.30;99.90;;;;;;5029122;28;20466;-77
2022/08/17 01:04:42;;;;;;;17.30;15.60;;;20.40;99.90;;;;;;5028084;28;20044;-77
2022/08/17 01:07:10;;;;;;;18.45;16.65;;;20.30;99.90;;;;;;5011857;28;20053;-77
2022/08/17 01:09:36;;;;;;;18.30;16.50;;;20.40;99.90;;;;;;4997669;28;20049;-77
2022/08/17 01:12:05;;;;;;;18.40;16.55;;;20.40;99.90;;;;;;4997606;28;20046;-77
2022/08/17 01:14:30;;;;;;;17.35;15.55;;;20.40;99.90;;;;;;5027891;28;20077;-77
2022/08/17 01:16:56;;;;;;;18.50;16.60;;;20.40;99.90;;;;;;5011673;28;20799;-77
2022/08/17 01:19:25;;;;;;;20.33;18.13;;;20.40;99.90;;;;;;5029483;28;20517;-77
2022/08/17 01:22:09;;;;;;;17.15;15.43;;;20.50;99.90;;;;;;5029142;28;20116;-77
2022/08/17 01:24:40;;;;;;;20.42;18.20;;;20.40;99.90;;;;;;5028450;28;20045;-77
2022/08/17 01:27:07;;;;;;;23.67;19.13;;;20.40;99.90;;;;;;5013085;28;20136;-78
2022/08/17 01:29:33;;;;;;;19.08;17.05;;;20.50;99.90;;;;;;5011459;28;20045;-77
2022/08/17 01:32:02;;;;;;;18.33;16.42;;;20.50;99.90;;;;;;5029690;28;20061;-77
2022/08/17 01:34:28;;;;;;;19.17;17.17;;;20.50;99.90;;;;;;5026700;28;20045;-77
2022/08/17 01:36:54;;;;;;;20.25;18.15;;;20.50;99.90;;;;;;5020983;28;20426;-77
2022/08/17 01:39:29;;;;;;;19.70;17.60;;;20.50;99.90;;;;;;5012623;28;20060;-77
2022/08/17 01:42:04;;;;;;;19.90;18.05;;;20.50;99.90;;;;;;5022440;28;20045;-77
2022/08/17 01:44:30;;;;;;;19.13;17.23;;;20.40;99.90;;;;;;5026564;28;20049;-78
2022/08/17 01:46:56;;;;;;;21.33;19.25;;;20.40;99.90;;;;;;5013337;28;20057;-77
2022/08/17 01:49:21;;;;;;;19.30;16.40;;;20.50;99.90;;;;;;5029582;28;20042;-77
2022/08/17 01:51:47;;;;;;;20.08;18.08;;;20.40;99.90;;;;;;4996344;28;20499;-78
2022/08/17 01:54:16;;;;;;;20.80;18.63;;;20.40;99.90;;;;;;5011404;28;20160;-77
2022/08/17 01:56:45;;;;;;;22.33;20.15;;;20.40;99.90;;;;;;5031512;28;20108;-77
2022/08/17 01:59:11;;;;;;;18.50;16.67;;;20.40;99.90;;;;;;5022698;28;20053;-77
2022/08/17 02:01:38;;;;;;;18.77;16.80;;;20.40;99.90;;;;;;5003945;28;20108;-77
2022/08/17 02:04:05;;;;;;;19.73;17.63;;;20.60;99.90;;;;;;5027565;28;20060;-78
2022/08/17 02:06:34;;;;;;;18.70;16.83;;;20.30;99.90;;;;;;5021061;28;20045;-78
2022/08/17 02:09:00;;;;;;;23.02;19.20;;;20.30;99.90;;;;;;5004552;28;20046;-78
2022/08/17 02:11:26;;;;;;;21.73;19.42;;;20.30;99.90;;;;;;5011973;28;20049;-78
2022/08/17 02:13:52;;;;;;;19.80;16.85;;;20.30;99.90;;;;;;5004694;28;20049;-78
2022/08/17 02:16:18;;;;;;;20.10;18.08;;;20.20;99.90;;;;;;5011443;28;20071;-78
2022/08/17 02:18:45;;;;;;;18.70;16.83;;;20.20;99.90;;;;;;5011743;28;20056;-78
2022/08/17 02:21:11;;;;;;;19.77;17.38;;;20.20;99.90;;;;;;5011702;28;20498;-78
2022/08/17 02:23:40;;;;;;;21.20;19.08;;;20.20;99.90;;;;;;4995826;28;20056;-78
2022/08/17 02:26:07;;;;;;;18.65;16.65;;;20.10;99.90;;;;;;5026782;28;20057;-78
2022/08/17 02:28:33;;;;;;;17.80;15.90;;;20.10;99.90;;;;;;5020201;28;20053;-79
2022/08/17 02:31:08;;;;;;;17.45;15.80;;;20.00;99.90;;;;;;5027235;28;20057;-78
2022/08/17 02:33:35;;;;;;;17.70;15.23;;;20.00;99.90;;;;;;5027201;28;20053;-78
2022/08/17 02:36:03;;;;;;;19.35;17.35;;;20.00;99.90;;;;;;5026782;28;20057;-78
2022/08/17 02:41:04;;;;;;;17.73;15.93;;;19.90;99.90;;;;;;5214792;23;20058;-82
2022/08/17 02:43:31;;;;;;;17.55;15.85;;;19.90;99.90;;;;;;4982234;28;20057;-82
2022/08/17 02:45:56;;;;;;;16.83;15.18;;;19.80;99.90;;;;;;5006852;28;20062;-82
2022/08/17 02:48:22;;;;;;;16.25;14.65;;;19.80;99.90;;;;;;4999274;28;20053;-82
2022/08/17 02:50:48;;;;;;;19.48;17.27;;;19.80;99.90;;;;;;5006041;28;20060;-81
2022/08/17 02:53:14;;;;;;;20.45;18.30;;;19.80;99.90;;;;;;4998423;28;20359;-83
2022/08/17 02:55:42;;;;;;;20.10;18.10;;;19.70;99.90;;;;;;4965007;28;20073;-82
2022/08/17 02:58:09;;;;;;;19.95;17.88;;;19.70;99.90;;;;;;4982665;28;20070;-81
2022/08/17 03:00:39;;;;;;;21.45;18.55;;;19.70;99.90;;;;;;4981206;28;20945;-82
2022/08/17 03:03:07;;;;;;;18.98;16.98;;;19.70;99.90;;;;;;4999154;28;20050;-81
2022/08/17 03:05:35;;;;;;;18.25;16.48;;;19.70;99.90;;;;;;4966980;28;20045;-82
2022/08/17 03:08:02;;;;;;;19.65;17.13;;;19.80;99.90;;;;;;4998508;28;20121;-82
2022/08/17 03:10:28;;;;;;;18.98;17.08;;;19.80;99.90;;;;;;4982373;28;20093;-82
2022/08/17 03:12:54;;;;;;;18.65;16.67;;;19.70;99.90;;;;;;4982663;28;20151;-82
2022/08/17 03:15:26;;;;;;;19.63;17.52;;;19.80;99.90;;;;;;4998732;28;20057;-81
2022/08/17 03:17:53;;;;;;;19.52;17.63;;;19.70;99.90;;;;;;4997531;28;20053;-82
2022/08/17 03:20:20;;;;;;;19.63;16.70;;;19.80;99.90;;;;;;4980836;28;20404;-82
2022/08/17 03:22:49;;;;;;;18.75;16.92;;;19.70;99.90;;;;;;4982172;28;20046;-81
2022/08/17 03:25:19;;;;;;;22.00;19.70;;;19.80;99.90;;;;;;4983214;28;20065;-82
2022/08/17 03:27:45;;;;;;;20.67;18.58;;;19.70;99.90;;;;;;4998670;28;20042;-81
2022/08/17 03:30:14;;;;;;;24.10;21.85;;;19.70;99.90;;;;;;4989228;28;20057;-82
2022/08/17 03:32:42;;;;;;;21.60;19.17;;;19.70;99.90;;;;;;4987613;28;20084;-81
2022/08/17 03:35:10;;;;;;;21.65;18.25;;;19.70;99.90;;;;;;4982636;28;20038;-81
2022/08/17 03:37:35;;;;;;;22.92;19.80;;;19.70;99.90;;;;;;4984223;28;20088;-81
2022/08/17 03:40:03;;;;;;;19.08;17.25;;;19.70;99.90;;;;;;5004062;28;20089;-81
2022/08/17 03:42:28;;;;;;;20.70;18.60;;;19.70;99.90;;;;;;5003565;28;20117;-82
2022/08/17 03:44:56;;;;;;;19.77;17.88;;;19.70;99.90;;;;;;4987132;28;20141;-82
2022/08/17 03:58:36;;;;;;;19.88;17.92;;;19.70;99.90;;;;;;4984132;28;20807;-82
2022/08/17 04:01:02;;;;;;;23.73;21.23;;;19.70;99.90;;;;;;4982595;28;20121;-82
2022/08/17 04:03:28;;;;;;;21.35;19.23;;;19.70;99.90;;;;;;4965644;28;20069;-82
2022/08/17 04:05:54;;;;;;;22.83;20.52;;;19.70;99.90;;;;;;4997995;28;20104;-81
2022/08/17 04:08:20;;;;;;;22.95;20.55;;;19.70;99.90;;;;;;4981980;28;20141;-82
2022/08/17 04:10:46;;;;;;;22.35;20.02;;;19.80;99.90;;;;;;4981320;28;20072;-81
2022/08/17 04:13:12;;;;;;;25.48;22.88;;;19.80;99.90;;;;;;4981516;28;20050;-81
2022/08/17 04:15:39;;;;;;;22.58;20.17;;;19.80;99.90;;;;;;4997880;28;20054;-82
2022/08/17 04:18:06;;;;;;;23.38;20.98;;;19.80;99.90;;;;;;4982314;28;20053;-82
2022/08/17 04:20:32;;;;;;;20.08;18.20;;;19.80;99.90;;;;;;4998072;28;20058;-82
2022/08/17 04:23:04;;;;;;;19.65;17.60;;;19.80;99.90;;;;;;5005868;28;20515;-82
2022/08/17 04:25:32;;;;;;;22.15;19.38;;;19.80;99.90;;;;;;5005830;28;20565;-81
2022/08/17 04:27:59;;;;;;;20.95;18.85;;;19.80;99.90;;;;;;4980797;28;20050;-82
2022/08/17 04:30:27;;;;;;;21.83;19.50;;;19.80;99.90;;;;;;4997803;28;20133;-82
2022/08/17 04:32:57;;;;;;;22.92;20.65;;;19.80;99.90;;;;;;4983794;28;20061;-81
2022/08/17 04:35:29;;;;;;;24.05;21.58;;;19.80;99.90;;;;;;4981645;28;20132;-81
2022/08/17 04:37:55;;;;;;;21.30;19.30;;;19.80;99.90;;;;;;4999158;28;20058;-82
2022/08/17 04:43:10;;;;;;;21.92;19.83;;;19.80;99.90;;;;;;4997810;28;20158;-82
2022/08/17 04:45:46;;;;;;;24.75;22.17;;;19.90;99.90;;;;;;5015082;28;20053;-82
2022/08/17 04:48:13;;;;;;;24.35;21.83;;;19.80;99.90;;;;;;4986325;28;20054;-81
2022/08/17 04:50:43;;;;;;;23.58;21.08;;;19.80;99.90;;;;;;5003031;28;20195;-81
2022/08/17 04:53:09;;;;;;;21.80;19.58;;;19.90;99.90;;;;;;4997871;28;20069;-81
2022/08/17 04:55:35;;;;;;;24.55;22.10;;;19.90;99.90;;;;;;5001825;28;20061;-81
2022/08/17 04:58:01;;;;;;;24.33;21.60;;;19.90;99.90;;;;;;5011168;28;20415;-81
2022/08/17 05:00:26;;;;;;;22.17;19.85;;;19.90;99.90;;;;;;5009527;28;20519;-81
2022/08/17 05:02:54;;;;;;;23.67;21.33;;;19.90;99.90;;;;;;4984441;28;20049;-81
2022/08/17 05:05:22;;;;;;;24.50;21.90;;;20.00;99.90;;;;;;4985661;28;20050;-81
2022/08/17 05:07:51;;;;;;;24.95;22.33;;;19.90;99.90;;;;;;4982336;28;20403;-81
2022/08/17 05:10:18;;;;;;;24.75;22.35;;;20.00;99.90;;;;;;4968617;28;20526;-80
2022/08/17 05:12:44;;;;;;;25.50;22.80;;;20.00;99.90;;;;;;5000236;28;20749;-81
2022/08/17 05:15:14;;;;;;;23.98;21.33;;;20.00;99.90;;;;;;4969371;28;20057;-85
2022/08/17 05:17:42;;;;;;;26.23;23.50;;;20.00;99.90;;;;;;5002876;28;20097;-87
2022/08/17 05:20:46;;;;;;;24.42;21.83;;;20.10;99.90;;;;;;4989430;28;20046;-85
2022/08/17 05:23:21;;;;;;;25.88;23.23;;;20.10;99.90;;;;;;5000346;28;20054;-88
2022/08/17 05:25:51;;;;;;;26.33;23.55;;;20.10;99.90;;;;;;4985085;28;20066;-88
2022/08/17 05:28:19;;;;;;;27.67;23.90;;;20.20;99.90;;;;;;4988763;28;20054;-88
2022/08/17 05:31:22;;;;;;;30.17;26.98;;;20.20;99.90;;;;;;4994700;28;20500;-88
2022/08/17 05:37:29;;;;;;;31.25;25.50;;;20.30;99.90;;;;;;4958451;28;20450;-89
2022/08/17 05:40:07;;;;;;;30.83;27.45;;;20.40;99.90;;;;;;4988152;28;20049;-90
2022/08/17 05:42:42;;;;;;;27.00;24.08;;;20.40;99.90;;;;;;4978472;28;20050;-89
2022/08/17 05:45:11;;;;;;;32.08;26.05;;;20.40;99.90;;;;;;4986791;28;21001;-90
2022/08/17 05:51:03;;;;;;;;;;;;;;;;;;;;;
2022/08/17 05:54:10;;;;;;;33.63;28.23;;;20.50;99.90;;;;;;5039939;28;20046;-89
2022/08/17 05:56:51;;;;;;;33.25;27.73;;;20.60;99.90;;;;;;4984255;28;20057;-87
2022/08/17 05:59:31;;;;;;;29.58;25.60;;;20.60;99.90;;;;;;4985756;28;20563;-86
2022/08/17 06:02:06;;;;;;;31.30;27.23;;;20.60;99.90;;;;;;5003592;28;20046;-86
2022/08/17 06:04:54;;;;;;;27.63;24.75;;;20.60;99.90;;;;;;4983300;28;20130;-86
2022/08/17 06:11:21;;;;;;;;;;;;;;;;;;;;;
2022/08/17 06:14:33;;;;;;;23.90;21.38;;;20.80;99.90;;;;;;5008012;28;20561;-88
2022/08/17 06:17:13;;;;;;;29.40;22.52;;;20.80;99.90;;;;;;5005443;28;20125;-87
2022/08/17 06:19:50;;;;;;;26.17;23.40;;;20.80;99.90;;;;;;4987840;28;20133;-89
2022/08/17 06:22:20;;;;;;;22.00;19.77;;;20.60;99.90;;;;;;5035755;28;20618;-88
2022/08/17 06:25:07;;;;;;;24.30;21.75;;;20.90;99.90;;;;;;4984872;28;20082;-84
2022/08/17 06:27:41;;;;;;;23.35;20.95;;;21.00;99.90;;;;;;4984599;28;20053;-86
2022/08/17 06:30:19;;;;;;;24.40;21.88;;;21.00;99.90;;;;;;5015647;28;20057;-86
2022/08/17 06:32:50;;;;;;;28.20;25.30;;;21.00;99.90;;;;;;4983059;28;20053;-85
2022/08/17 06:35:32;;;;;;;28.80;25.75;;;20.90;99.90;;;;;;5001618;28;20400;-85
2022/08/17 06:38:18;;;;;;;24.02;21.70;;;21.10;99.90;;;;;;4984308;28;20191;-85
2022/08/17 06:41:07;;;;;;;23.77;21.27;;;21.10;99.90;;;;;;4989621;28;20518;-85
2022/08/17 06:44:04;;;;;;;23.90;20.73;;;21.00;99.90;;;;;;4982560;28;20049;-84
2022/08/17 06:46:38;;;;;;;21.73;19.27;;;21.20;99.90;;;;;;4980600;28;20573;-86
2022/08/17 06:49:56;;;;;;;22.00;19.80;;;21.20;99.90;;;;;;5116171;27;20907;-85
2022/08/17 06:52:33;;;;;;;22.17;19.92;;;21.20;99.90;;;;;;5097235;28;20508;-85
2022/08/17 06:55:12;;;;;;;22.05;19.88;;;21.20;99.90;;;;;;5076969;28;20484;-85
2022/08/17 06:57:45;;;;;;;21.70;19.55;;;21.20;99.90;;;;;;5098716;28;20211;-86
2022/08/17 07:00:23;;;;;;;22.75;20.48;;;21.30;99.90;;;;;;5097163;28;20048;-85
2022/08/17 07:03:05;;;;;;;20.92;18.73;;;21.30;99.90;;;;;;5111566;28;20100;-86
2022/08/17 07:05:47;;;;;;;24.30;21.75;;;21.30;99.90;;;;;;5108637;28;20050;-90
2022/08/17 07:09:00;;;;;;;23.73;21.17;;;21.40;99.90;;;;;;5099432;28;20043;-90
2022/08/17 07:11:26;;;;;;;25.75;23.10;;;21.20;99.90;;;;;;5094324;28;20109;-88
2022/08/17 07:14:23;;;;;;;22.05;19.70;;;21.50;99.90;;;;;;5095888;28;20044;-90
2022/08/17 07:17:01;;;;;;;21.35;19.35;;;21.60;99.90;;;;;;5093014;28;20039;-89
2022/08/17 07:19:34;;;;;;;21.80;19.13;;;21.50;99.90;;;;;;5116645;28;20050;-90
2022/08/17 07:22:13;;;;;;;23.20;20.88;;;21.50;99.90;;;;;;5096282;28;20043;-85
2022/08/17 07:24:58;;;;;;;24.80;22.20;;;21.50;99.90;;;;;;5112769;28;20079;-83
2022/08/17 07:27:27;;;;;;;22.93;20.53;;;21.60;99.90;;;;;;5079942;28;20439;-84
2022/08/17 07:29:57;;;;;;;20.98;18.95;;;21.60;99.90;;;;;;5097046;28;20338;-84
2022/08/17 07:32:30;;;;;;;20.52;18.45;;;21.40;99.90;;;;;;5097332;28;20047;-84
2022/08/17 07:35:09;;;;;;;22.58;20.30;;;21.60;99.90;;;;;;5095986;28;20821;-84
2022/08/17 07:37:47;;;;;;;20.17;18.17;;;21.60;99.90;;;;;;5113461;28;20051;-84
2022/08/17 07:40:18;;;;;;;24.10;21.65;;;21.60;99.90;;;;;;5112374;28;20062;-84
2022/08/17 07:43:22;;;;;;;19.85;18.00;;;21.60;99.90;;;;;;5128784;27;20051;-85
2022/08/17 07:48:51;;;;;;;21.77;19.20;;;21.50;99.90;;;;;;5108336;28;20056;-84
2022/08/17 07:51:35;;;;;;;17.58;15.88;;;21.50;99.90;;;;;;5112097;28;20047;-84
2022/08/17 07:54:21;;;;;;;18.77;16.88;;;21.50;99.90;;;;;;5099237;28;20082;-84
2022/08/17 07:56:54;;;;;;;16.85;15.18;;;21.50;99.90;;;;;;5099659;28;20452;-84
2022/08/17 07:59:24;;;;;;;18.10;16.30;;;21.40;99.90;;;;;;5090144;28;20071;-84
2022/08/17 08:02:06;;;;;;;16.75;15.20;;;21.40;99.90;;;;;;5097045;28;20048;-84
2022/08/17 08:04:49;;;;;;;18.98;17.17;;;21.40;99.90;;;;;;5081539;28;20035;-85
2022/08/17 08:07:15;;;;;;;18.05;15.00;;;21.40;99.90;;;;;;5068381;28;20090;-86
2022/08/17 08:09:43;;;;;;;16.90;15.10;;;21.30;99.90;;;;;;5080513;28;20048;-86
2022/08/17 08:12:28;;;;;;;18.30;16.30;;;21.30;99.90;;;;;;5098742;28;20047;-87
2022/08/17 08:15:24;;;;;;;16.30;14.75;;;21.30;99.90;;;;;;5091961;28;20055;-86
2022/08/17 08:17:57;;;;;;;20.23;18.13;;;21.00;99.90;;;;;;5077084;28;20036;-86
2022/08/17 08:20:37;;;;;;;17.05;15.05;;;21.30;99.90;;;;;;5073240;28;20044;-86
2022/08/17 08:23:30;;;;;;;16.02;14.35;;;21.30;99.90;;;;;;5095796;28;20074;-85
2022/08/17 08:26:22;;;;;;;19.67;17.75;;;21.20;99.90;;;;;;5078796;28;20151;-86
2022/08/17 08:29:03;;;;;;;18.10;16.38;;;21.20;99.90;;;;;;5075694;28;20040;-85
2022/08/17 08:31:41;;;;;;;16.13;14.52;;;21.10;99.90;;;;;;5092451;28;20044;-85
2022/08/17 08:34:09;;;;;;;17.50;15.80;;;21.10;99.90;;;;;;5093704;28;20054;-86
2022/08/17 08:37:07;;;;;;;14.88;13.38;;;21.10;99.90;;;;;;5077730;28;20047;-92
2022/08/17 08:39:58;;;;;;;15.68;14.07;;;21.00;99.90;;;;;;5094372;28;20044;-88
2022/08/17 08:42:40;;;;;;;16.55;14.85;;;21.00;99.90;;;;;;5081305;28;20056;-86
2022/08/17 08:45:22;;;;;;;18.30;16.40;;;21.00;99.90;;;;;;5076681;28;20040;-88
2022/08/17 08:47:59;;;;;;;15.52;14.07;;;21.20;99.90;;;;;;5077609;28;20070;-87
2022/08/17 08:50:54;;;;;;;15.77;14.27;;;21.10;99.90;;;;;;5069757;28;20516;-85
2022/08/17 08:53:30;;;;;;;15.48;13.07;;;21.10;99.90;;;;;;5073180;28;20137;-86
2022/08/17 08:56:00;;;;;;;14.57;12.93;;;21.00;99.90;;;;;;5093840;28;20139;-87
2022/08/17 08:58:36;;;;;;;15.40;13.93;;;21.00;99.90;;;;;;5083350;28;20043;-87
2022/08/17 09:01:07;;;;;;;14.35;12.88;;;21.00;99.90;;;;;;5101562;28;20105;-86
2022/08/17 09:04:07;;;;;;;14.05;12.57;;;21.00;99.90;;;;;;5093017;28;20044;-84
2022/08/17 09:06:38;;;;;;;14.40;13.00;;;21.00;99.90;;;;;;5092896;28;20442;-87
2022/08/17 09:09:57;;;;;;;15.05;13.57;;;21.00;99.90;;;;;;5089665;28;20105;-86
2022/08/17 09:13:06;;;;;;;15.73;14.20;;;21.10;99.90;;;;;;5091852;28;20051;-91
2022/08/17 09:16:14;;;;;;;16.90;15.20;;;20.90;99.90;;;;;;5078706;28;20036;-92
2022/08/17 09:19:05;;;;;;;18.38;16.30;;;20.80;99.90;;;;;;5077647;28;20185;-91
2022/08/17 09:21:48;;;;;;;17.55;15.77;;;21.10;99.90;;;;;;5076321;28;20105;-86
2022/08/17 09:24:49;;;;;;;18.15;16.35;;;21.00;99.90;;;;;;5058469;28;20052;-86
2022/08/17 09:27:30;;;;;;;16.88;15.15;;;21.00;99.90;;;;;;5080648;28;20052;-88
2022/08/17 09:30:18;;;;;;;19.80;17.83;;;21.00;99.90;;;;;;5071759;28;20124;-89
2022/08/17 09:36:00;;;;;;;15.20;13.73;;;21.00;99.90;;;;;;5079729;28;20086;-84
2022/08/17 09:38:52;;;;;;;14.18;12.80;;;20.90;99.90;;;;;;5084528;28;20083;-84
2022/08/17 09:41:54;;;;;;;15.35;13.75;;;20.90;99.90;;;;;;5069605;28;20438;-85
2022/08/17 09:44:32;;;;;;;12.85;10.80;;;20.80;99.90;;;;;;5058499;28;20619;-84
2022/08/17 09:47:16;;;;;;;11.32;10.30;;;20.60;99.90;;;;;;5052863;28;20047;-87
2022/08/17 09:49:53;;;;;;;10.20;9.27;;;20.60;99.90;;;;;;5087383;28;20052;-84
2022/08/17 09:52:28;;;;;;;9.10;8.15;;;20.50;99.90;;;;;;5085613;28;20051;-86
2022/08/17 09:54:56;;;;;;;8.70;7.80;;;20.40;99.90;;;;;;5069941;28;20182;-85
2022/08/17 09:57:31;;;;;;;7.82;7.05;;;20.30;99.90;;;;;;5091184;28;20114;-86
2022/08/17 10:00:16;;;;;;;8.98;7.35;;;20.30;99.90;;;;;;5073790;28;20051;-86
2022/08/17 10:03:07;;;;;;;;;;;;;;;;;;;;;
2022/08/17 10:06:27;;;;;;;;;;;;;;;;;;;;;
2022/08/17 10:09:13;;;;;;;10.37;8.60;;;19.60;99.90;;;;;;5088449;28;20584;-87
2022/08/17 10:12:20;;;;;;;10.60;9.55;;;20.10;99.90;;;;;;5087571;28;20074;-85
2022/08/17 10:15:24;;;;;;;12.50;11.32;;;20.10;99.90;;;;;;5088625;28;20052;-85
2022/08/17 10:17:58;;;;;;;10.70;9.80;;;20.20;99.90;;;;;;5060270;28;20093;-85
2022/08/17 10:20:43;;;;;;;9.93;9.00;;;20.20;99.90;;;;;;5072160;28;20044;-84
2022/08/17 10:26:25;;;;;;;9.88;8.95;;;20.10;99.90;;;;;;5086333;28;20043;-83
2022/08/17 10:29:04;;;;;;;9.77;8.45;;;20.10;99.90;;;;;;5085165;28;20131;-83
2022/08/17 10:31:37;;;;;;;8.30;7.55;;;20.10;99.90;;;;;;5069067;28;20717;-83
2022/08/17 10:34:24;;;;;;;9.77;8.00;;;20.00;99.90;;;;;;5092133;28;20104;-83
2022/08/17 10:37:12;;;;;;;8.48;7.68;;;20.10;99.90;;;;;;5058863;28;20041;-83
2022/08/17 10:40:16;;;;;;;10.90;8.60;;;20.10;99.90;;;;;;5088911;28;20105;-83
2022/08/17 10:42:56;;;;;;;8.52;7.70;;;20.10;99.90;;;;;;5060178;28;20048;-84
2022/08/17 10:45:36;;;;;;;8.35;7.57;;;20.00;99.90;;;;;;5087596;28;20508;-83
2022/08/17 10:48:05;;;;;;;8.60;7.65;;;20.10;99.90;;;;;;5065918;28;20136;-84
2022/08/17 10:50:57;;;;;;;7.93;7.22;;;20.00;99.90;;;;;;5075501;28;20051;-87
2022/08/17 10:53:32;;;;;;;8.20;6.78;;;19.90;99.90;;;;;;5070996;28;20047;-83
2022/08/17 10:56:13;;;;;;;7.43;6.72;;;19.90;99.90;;;;;;5090645;28;20857;-84
2022/08/17 10:58:48;;;;;;;7.43;6.55;;;20.00;99.90;;;;;;5062095;28;20048;-83
2022/08/17 11:01:15;;;;;;;7.45;6.75;;;20.00;99.90;;;;;;5058910;28;20504;-82
2022/08/17 11:03:53;;;;;;;8.00;6.07;;;20.00;99.90;;;;;;5057608;28;20048;-88
2022/08/17 11:06:34;;;;;;;6.65;5.45;;;19.90;99.90;;;;;;5071590;28;20224;-85
2022/08/17 11:09:23;;;;;;;5.30;4.80;;;19.70;99.90;;;;;;5088905;28;20082;-90
2022/08/17 11:12:25;;;;;;;;;;;;;;;;;;;;;
2022/08/17 11:15:08;;;;;;;7.28;5.20;;;19.90;99.90;;;;;;5086180;28;20106;-88
2022/08/17 11:17:54;;;;;;;8.27;6.25;;;19.90;99.90;;;;;;5069677;28;20097;-90
2022/08/17 11:20:53;;;;;;;6.57;5.45;;;19.90;99.90;;;;;;5069208;28;20054;-89
2022/08/17 11:23:54;;;;;;;8.38;5.78;;;19.90;99.90;;;;;;5083977;28;20181;-89
2022/08/17 11:26:31;;;;;;;9.88;6.93;;;19.40;99.90;;;;;;5083164;28;20043;-90
2022/08/17 11:29:03;;;;;;;7.07;6.28;;;20.00;99.90;;;;;;5073623;28;20777;-88
2022/08/17 11:31:47;;;;;;;8.55;6.38;;;20.00;99.90;;;;;;5085491;28;20121;-89
2022/08/17 11:34:25;;;;;;;9.95;7.28;;;20.20;99.90;;;;;;5078150;28;20404;-88
2022/08/17 11:37:05;;;;;;;8.10;5.72;;;20.10;99.90;;;;;;5093856;28;20042;-91
2022/08/17 11:39:45;;;;;;;9.00;5.07;;;20.10;99.90;;;;;;5095236;28;20572;-89
2022/08/17 11:42:25;;;;;;;9.13;5.53;;;20.10;99.90;;;;;;5066375;28;20139;-92
2022/08/17 11:45:15;;;;;;;10.07;5.43;;;20.20;99.90;;;;;;5067964;28;20055;-91
2022/08/17 11:54:03;;;;;;;6.95;5.78;;;20.40;99.90;;;;;;5037982;28;20072;-85
2022/08/17 11:56:47;;;;;;;9.55;5.80;;;20.50;99.90;;;;;;5040119;28;20060;-87
2022/08/17 11:59:34;;;;;;;9.20;5.85;;;20.50;99.90;;;;;;5034891;28;20115;-86
2022/08/17 12:02:29;;;;;;;8.45;5.22;;;20.50;99.90;;;;;;5050685;28;20268;-86
2022/08/17 12:05:15;;;;;;;9.52;5.43;;;20.50;99.90;;;;;;5049598;28;20091;-88
2022/08/17 12:08:17;;;;;;;8.73;5.10;;;20.60;99.90;;;;;;5031436;28;20053;-93
2022/08/17 12:11:18;;;;;;;9.43;4.95;;;20.50;99.90;;;;;;5039482;28;20049;-93
2022/08/17 12:14:03;;;;;;;;;;;;;;;;;;;;;
2022/08/17 12:17:23;;;;;;;8.63;4.45;;;20.50;99.90;;;;;;5057285;28;20502;-90
2022/08/17 12:20:01;;;;;;;;;;;;;;;;;;;;;
2022/08/17 12:23:03;;;;;;;;;;;;;;;;;;;;;
2022/08/17 12:25:52;;;;;;;;;;;;;;;;;;;;;
2022/08/17 12:28:34;;;;;;;10.68;6.00;;;20.60;99.90;;;;;;5064945;28;20121;-83
2022/08/17 12:31:06;;;;;;;12.43;5.85;;;20.80;99.90;;;;;;5038511;28;20106;-82
2022/08/17 12:33:34;;;;;;;9.25;5.70;;;20.90;99.90;;;;;;5032144;28;20059;-83
2022/08/17 12:36:05;;;;;;;6.85;5.30;;;21.10;99.90;;;;;;5031672;28;20044;-80
2022/08/17 12:38:34;;;;;;;8.98;5.80;;;21.20;99.90;;;;;;5037686;28;20302;-80
2022/08/17 12:41:25;;;;;;;7.45;4.93;;;21.40;99.90;;;;;;5067105;28;20080;-80
2022/08/17 12:44:10;;;;;;;6.85;5.15;;;21.40;99.90;;;;;;5050860;28;20087;-80
2022/08/17 12:47:09;;;;;;;8.38;4.28;;;21.50;99.90;;;;;;5042943;28;20049;-81
2022/08/17 12:49:41;;;;;;;8.57;4.03;;;21.50;99.90;;;;;;5082884;28;20428;-81
2022/08/17 12:52:23;;;;;;;5.90;3.95;;;21.50;99.90;;;;;;5060247;28;20040;-81
2022/08/17 12:55:05;;;;;;;7.10;3.97;;;21.50;99.90;;;;;;5087532;28;20043;-81
2022/08/17 12:57:33;;;;;;;6.28;3.80;;;21.50;99.90;;;;;;5070716;28;20114;-81
2022/08/17 13:00:19;;;;;;;5.18;3.55;;;21.50;99.90;;;;;;5068149;28;20043;-80
2022/08/17 13:02:57;;;;;;;5.47;3.45;;;21.50;99.90;;;;;;5062522;28;20040;-80
2022/08/17 13:05:30;;;;;;;4.72;3.03;;;21.50;99.90;;;;;;5073719;28;20063;-83
2022/08/17 13:07:58;;;;;;;4.68;3.42;;;21.60;99.90;;;;;;5081383;28;20074;-83
2022/08/17 13:10:34;;;;;;;6.00;3.25;;;21.60;99.90;;;;;;5072395;28;20048;-81
2022/08/17 13:13:04;;;;;;;;;;;21.60;99.90;;;;;;5092857;28;20058;-81
2022/08/17 13:15:50;;;;;;;4.18;3.40;;;21.60;99.90;;;;;;5089127;28;19981;-82
2022/08/17 13:18:40;;;;;;;3.95;3.50;;;21.50;99.90;;;;;;5086935;28;20511;-81
2022/08/17 13:21:31;;;;;;;5.00;3.03;;;21.60;99.90;;;;;;5090387;28;20043;-81
2022/08/17 13:24:04;;;;;;;5.20;3.50;;;21.60;99.90;;;;;;5086496;28;21920;-81
2022/08/17 13:26:44;;;;;;;6.43;3.75;;;21.70;99.90;;;;;;5058764;28;20553;-80
2022/08/17 13:29:24;;;;;;;4.35;3.20;;;21.70;99.90;;;;;;5082145;28;20123;-81
2022/08/17 13:32:17;;;;;;;5.07;3.65;;;21.80;99.90;;;;;;5069119;28;20488;-81
2022/08/17 13:34:52;;;;;;;5.63;3.28;;;21.90;99.90;;;;;;5067322;28;20048;-82
2022/08/17 13:37:27;;;;;;;5.93;3.40;;;21.90;99.90;;;;;;5058064;28;20048;-82
2022/08/17 13:40:08;;;;;;;4.18;3.00;;;22.00;99.90;;;;;;5072541;28;20055;-83
2022/08/17 13:42:55;;;;;;;4.40;2.95;;;22.20;99.90;;;;;;5067466;28;20101;-84
2022/08/17 13:45:36;;;;;;;6.28;2.97;;;22.30;99.90;;;;;;5090620;28;20067;-83
2022/08/17 13:48:08;;;;;;;3.85;3.20;;;22.40;99.90;;;;;;5090822;28;20131;-83
2022/08/17 13:50:44;;;;;;;5.35;2.97;;;22.50;99.90;;;;;;5087863;28;20048;-83
2022/08/17 13:53:24;;;;;;;6.15;3.10;;;22.50;99.90;;;;;;5065666;28;20039;-82
2022/08/17 13:55:55;;;;;;;4.40;2.63;;;22.50;99.90;;;;;;5072782;28;20054;-81
2022/08/17 13:58:27;;;;;;;4.88;3.08;;;22.50;99.90;;;;;;5095195;28;20252;-81
2022/08/17 14:00:55;;;;;;;3.60;3.13;;;22.50;99.90;;;;;;5080088;28;20047;-81
2022/08/17 14:03:21;;;;;;;5.90;3.08;;;22.50;99.90;;;;;;5075813;28;20043;-81
2022/08/17 14:05:49;;;;;;;4.13;2.80;;;22.40;99.90;;;;;;5064255;28;20052;-81
2022/08/17 14:08:29;;;;;;;4.60;3.03;;;22.40;99.90;;;;;;5046684;28;20051;-82
2022/08/17 14:11:00;;;;;;;3.70;2.90;;;22.30;99.90;;;;;;5080757;28;20051;-82
2022/08/17 14:13:48;;;;;;;4.90;2.90;;;22.20;99.90;;;;;;5062651;28;20051;-81
2022/08/17 14:16:14;;;;;;;4.97;2.60;;;22.10;99.90;;;;;;5077903;28;20180;-82